sensor_id;sensor_type;location;lat;lon;timestamp;temperature;humidity
19254;DHT22;9761;50.926;5.330;2022-11-15T06:12:36;10.20;99.90
19254;DHT22;9761;50.926;5.330;2022-11-15T06:15:05;10.20;99.90
19254;DHT22;9761;50.926;5.330;2022-11-15T06:17:32;10.30;99.90
19254;DHT22;9761;50.926;5.330;2022-11-15T06:20:01;10.30;99.90
19254;DHT22;9761;50.926;5.330;2022-11-15T06:22:29;10.40;99.90
19254;DHT22;9761;50.926;5.330;2022-11-15T06:24:56;10.40;99.90
19254;DHT22;9761;50.926;5.330;2022-11-15T06:30:23;10.50;99.90
19254;DHT22;9761;50.926;5.330;2022-11-15T06:32:50;10.50;99.90
19254;DHT22;9761;50.926;5.330;2022-11-15T06:35:19;10.60;99.90
19254;DHT22;9761;50.926;5.330;2022-11-15T06:37:51;10.50;99.90
19254;DHT22;9761;50.926;5.330;2022-11-15T06:40:19;10.40;99.90
19254;DHT22;9761;50.926;5.330;2022-11-15T06:42:46;10.40;99.90
19254;DHT22;9761;50.926;5.330;2022-11-15T06:45:13;10.40;99.90
19254;DHT22;9761;50.926;5.330;2022-11-15T06:47:45;10.30;99.90
19254;DHT22;9761;50.926;5.330;2022-11-15T06:50:13;10.30;99.90
19254;DHT22;9761;50.926;5.330;2022-11-15T06:52:41;10.30;99.90
19254;DHT22;9761;50.926;5.330;2022-11-15T06:55:10;10.30;99.90
19254;DHT22;9761;50.926;5.330;2022-11-15T06:57:42;10.20;99.90
19254;DHT22;9761;50.926;5.330;2022-11-15T07:00:17;10.20;99.90
19254;DHT22;9761;50.926;5.330;2022-11-15T07:02:48;10.20;99.90
19254;DHT22;9761;50.926;5.330;2022-11-15T07:05:17;10.20;99.90
19254;DHT22;9761;50.926;5.330;2022-11-15T07:07:52;10.20;99.90
19254;DHT22;9761;50.926;5.330;2022-11-15T07:10:19;10.20;99.90
19254;DHT22;9761;50.926;5.330;2022-11-15T07:12:47;10.30;99.90
19254;DHT22;9761;50.926;5.330;2022-11-15T07:15:15;10.30;99.90
19254;DHT22;9761;50.926;5.330;2022-11-15T07:17:43;10.20;99.90
19254;DHT22;9761;50.926;5.330;2022-11-15T07:20:17;10.30;99.90
19254;DHT22;9761;50.926;5.330;2022-11-15T07:22:45;10.20;99.90
19254;DHT22;9761;50.926;5.330;2022-11-15T07:25:15;10.30;99.90
19254;DHT22;9761;50.926;5.330;2022-11-15T07:27:41;10.30;99.90
19254;DHT22;9761;50.926;5.330;2022-11-15T07:30:13;10.40;99.90
19254;DHT22;9761;50.926;5.330;2022-11-15T07:32:42;10.40;99.90
19254;DHT22;9761;50.926;5.330;2022-11-15T07:35:12;10.40;99.90
19254;DHT22;9761;50.926;5.330;2022-11-15T07:37:40;10.30;99.90
19254;DHT22;9761;50.926;5.330;2022-11-15T07:40:09;10.40;99.90
19254;DHT22;9761;50.926;5.330;2022-11-15T07:42:36;10.40;99.90
19254;DHT22;9761;50.926;5.330;2022-11-15T07:45:25;10.30;99.90
19254;DHT22;9761;50.926;5.330;2022-11-15T07:47:53;10.30;99.90
19254;DHT22;9761;50.926;5.330;2022-11-15T07:50:23;10.30;99.90
19254;DHT22;9761;50.926;5.330;2022-11-15T07:52:54;10.30;99.90
19254;DHT22;9761;50.926;5.330;2022-11-15T07:55:22;10.30;99.90
19254;DHT22;9761;50.926;5.330;2022-11-15T07:57:50;10.40;99.90
19254;DHT22;9761;50.926;5.330;2022-11-15T08:00:18;10.50;99.90
19254;DHT22;9761;50.926;5.330;2022-11-15T08:02:47;10.50;99.90
19254;DHT22;9761;50.926;5.330;2022-11-15T08:05:15;10.50;99.90
19254;DHT22;9761;50.926;5.330;2022-11-15T08:07:46;10.40;99.90
19254;DHT22;9761;50.926;5.330;2022-11-15T08:10:15;10.40;99.90
19254;DHT22;9761;50.926;5.330;2022-11-15T08:12:47;10.40;99.90
19254;DHT22;9761;50.926;5.330;2022-11-15T08:15:15;10.40;99.90
19254;DHT22;9761;50.926;5.330;2022-11-15T08:17:43;10.40;99.90
19254;DHT22;9761;50.926;5.330;2022-11-15T08:20:10;10.30;99.90
19254;DHT22;9761;50.926;5.330;2022-11-15T08:22:37;10.30;99.90
19254;DHT22;9761;50.926;5.330;2022-11-15T08:25:08;10.30;99.90
19254;DHT22;9761;50.926;5.330;2022-11-15T08:27:35;10.40;99.90
19254;DHT22;9761;50.926;5.330;2022-11-15T08:30:06;10.30;99.90
19254;DHT22;9761;50.926;5.330;2022-11-15T08:32:33;10.30;99.90
19254;DHT22;9761;50.926;5.330;2022-11-15T08:35:00;10.30;99.90
19254;DHT22;9761;50.926;5.330;2022-11-15T08:37:27;10.40;99.90
19254;DHT22;9761;50.926;5.330;2022-11-15T08:39:54;10.40;99.90
19254;DHT22;9761;50.926;5.330;2022-11-15T08:42:22;10.30;99.90
19254;DHT22;9761;50.926;5.330;2022-11-15T08:44:52;10.40;99.90
19254;DHT22;9761;50.926;5.330;2022-11-15T08:47:19;10.40;99.90
19254;DHT22;9761;50.926;5.330;2022-11-15T08:49:46;10.30;99.90
19254;DHT22;9761;50.926;5.330;2022-11-15T08:52:15;10.40;99.90
19254;DHT22;9761;50.926;5.330;2022-11-15T08:54:41;10.40;99.90
19254;DHT22;9761;50.926;5.330;2022-11-15T08:57:15;10.50;99.90
19254;DHT22;9761;50.926;5.330;2022-11-15T08:59:44;10.50;99.90
19254;DHT22;9761;50.926;5.330;2022-11-15T09:02:12;10.50;99.90
19254;DHT22;9761;50.926;5.330;2022-11-15T09:04:42;10.60;99.90
19254;DHT22;9761;50.926;5.330;2022-11-15T09:07:11;10.60;99.90
19254;DHT22;9761;50.926;5.330;2022-11-15T09:09:43;10.50;99.90
19254;DHT22;9761;50.926;5.330;2022-11-15T09:12:10;10.60;99.90
19254;DHT22;9761;50.926;5.330;2022-11-15T09:14:37;10.60;99.90
19254;DHT22;9761;50.926;5.330;2022-11-15T09:17:09;10.60;99.90
19254;DHT22;9761;50.926;5.330;2022-11-15T09:19:36;10.60;99.90
19254;DHT22;9761;50.926;5.330;2022-11-15T09:22:06;10.60;99.90
19254;DHT22;9761;50.926;5.330;2022-11-15T09:24:33;10.60;99.90
19254;DHT22;9761;50.926;5.330;2022-11-15T09:27:03;10.60;99.90
19254;DHT22;9761;50.926;5.330;2022-11-15T09:29:51;10.70;99.90
19254;DHT22;9761;50.926;5.330;2022-11-15T09:32:21;10.70;99.90
19254;DHT22;9761;50.926;5.330;2022-11-15T09:34:50;10.80;99.90
19254;DHT22;9761;50.926;5.330;2022-11-15T09:37:20;10.70;99.90
19254;DHT22;9761;50.926;5.330;2022-11-15T09:39:48;10.70;99.90
19254;DHT22;9761;50.926;5.330;2022-11-15T09:42:25;10.60;99.90
19254;DHT22;9761;50.926;5.330;2022-11-15T09:45:11;10.70;99.90
19254;DHT22;9761;50.926;5.330;2022-11-15T09:48:16;10.70;99.90
19254;DHT22;9761;50.926;5.330;2022-11-15T09:50:50;10.80;99.90
19254;DHT22;9761;50.926;5.330;2022-11-15T09:53:31;10.90;99.90
19254;DHT22;9761;50.926;5.330;2022-11-15T09:59:22;11.10;99.90
19254;DHT22;9761;50.926;5.330;2022-11-15T10:01:56;11.10;99.90
19254;DHT22;9761;50.926;5.330;2022-11-15T10:04:30;11.30;99.90
19254;DHT22;9761;50.926;5.330;2022-11-15T10:07:04;11.50;99.90
19254;DHT22;9761;50.926;5.330;2022-11-15T10:09:41;11.50;99.90
19254;DHT22;9761;50.926;5.330;2022-11-15T10:12:13;11.60;99.90
19254;DHT22;9761;50.926;5.330;2022-11-15T10:18:14;11.60;99.90
19254;DHT22;9761;50.926;5.330;2022-11-15T10:20:54;11.80;99.90
19254;DHT22;9761;50.926;5.330;2022-11-15T10:23:28;11.60;99.90
19254;DHT22;9761;50.926;5.330;2022-11-15T10:25:58;11.80;99.90
19254;DHT22;9761;50.926;5.330;2022-11-15T10:28:28;11.80;99.90
19254;DHT22;9761;50.926;5.330;2022-11-15T10:30:59;11.70;99.90
19254;DHT22;9761;50.926;5.330;2022-11-15T10:33:31;11.70;99.90
19254;DHT22;9761;50.926;5.330;2022-11-15T10:36:19;11.70;99.90
19254;DHT22;9761;50.926;5.330;2022-11-15T10:38:56;11.80;99.90
19254;DHT22;9761;50.926;5.330;2022-11-15T10:41:34;11.80;99.90
19254;DHT22;9761;50.926;5.330;2022-11-15T10:44:31;11.70;99.90
19254;DHT22;9761;50.926;5.330;2022-11-15T10:47:21;11.50;99.90
19254;DHT22;9761;50.926;5.330;2022-11-15T10:49:57;11.50;99.90
19254;DHT22;9761;50.926;5.330;2022-11-15T10:52:28;11.60;99.90
19254;DHT22;9761;50.926;5.330;2022-11-15T10:55:01;11.70;99.90
19254;DHT22;9761;50.926;5.330;2022-11-15T10:57:37;11.80;99.90
19254;DHT22;9761;50.926;5.330;2022-11-15T11:00:29;11.90;99.90
19254;DHT22;9761;50.926;5.330;2022-11-15T11:02:59;12.10;99.90
19254;DHT22;9761;50.926;5.330;2022-11-15T11:05:39;12.10;99.90
19254;DHT22;9761;50.926;5.330;2022-11-15T11:08:23;12.20;99.90
19254;DHT22;9761;50.926;5.330;2022-11-15T11:10:53;12.40;99.90
19254;DHT22;9761;50.926;5.330;2022-11-15T11:13:23;12.50;99.90
19254;DHT22;9761;50.926;5.330;2022-11-15T11:15:59;12.40;99.90
19254;DHT22;9761;50.926;5.330;2022-11-15T11:18:33;12.50;99.90
19254;DHT22;9761;50.926;5.330;2022-11-15T11:21:06;12.90;99.90
19254;DHT22;9761;50.926;5.330;2022-11-15T11:23:46;13.10;99.90
19254;DHT22;9761;50.926;5.330;2022-11-15T11:26:35;13.10;99.90
19254;DHT22;9761;50.926;5.330;2022-11-15T11:29:20;13.10;99.90
19254;DHT22;9761;50.926;5.330;2022-11-15T11:31:55;13.10;99.90
19254;DHT22;9761;50.926;5.330;2022-11-15T11:34:38;13.00;99.90
19254;DHT22;9761;50.926;5.330;2022-11-15T11:37:14;12.90;99.90
19254;DHT22;9761;50.926;5.330;2022-11-15T11:40:05;13.10;99.90
19254;DHT22;9761;50.926;5.330;2022-11-15T11:42:44;13.20;99.90
19254;DHT22;9761;50.926;5.330;2022-11-15T11:45:18;13.20;99.90
19254;DHT22;9761;50.926;5.330;2022-11-15T11:47:47;13.30;99.90
19254;DHT22;9761;50.926;5.330;2022-11-15T11:50:20;13.10;99.90
19254;DHT22;9761;50.926;5.330;2022-11-15T11:52:57;13.30;99.90
19254;DHT22;9761;50.926;5.330;2022-11-15T11:55:31;13.10;99.90
19254;DHT22;9761;50.926;5.330;2022-11-15T11:58:05;13.00;99.90
19254;DHT22;9761;50.926;5.330;2022-11-15T12:00:38;13.00;99.90
19254;DHT22;9761;50.926;5.330;2022-11-15T12:03:12;12.90;99.90
19254;DHT22;9761;50.926;5.330;2022-11-15T12:05:43;12.90;99.90
19254;DHT22;9761;50.926;5.330;2022-11-15T12:08:29;13.00;99.90
19254;DHT22;9761;50.926;5.330;2022-11-15T12:11:14;13.00;99.90
19254;DHT22;9761;50.926;5.330;2022-11-15T12:13:45;13.10;99.90
19254;DHT22;9761;50.926;5.330;2022-11-15T12:16:19;13.10;99.90
19254;DHT22;9761;50.926;5.330;2022-11-15T12:18:50;13.40;99.90
19254;DHT22;9761;50.926;5.330;2022-11-15T12:21:28;13.60;99.90
19254;DHT22;9761;50.926;5.330;2022-11-15T12:24:04;13.60;99.90
19254;DHT22;9761;50.926;5.330;2022-11-15T12:26:40;13.50;99.90
19254;DHT22;9761;50.926;5.330;2022-11-15T12:29:14;13.70;99.90
19254;DHT22;9761;50.926;5.330;2022-11-15T12:31:45;13.80;99.90
19254;DHT22;9761;50.926;5.330;2022-11-15T12:34:37;13.80;99.90
19254;DHT22;9761;50.926;5.330;2022-11-15T12:40:34;13.90;99.90
19254;DHT22;9761;50.926;5.330;2022-11-15T12:46:03;14.10;99.90
19254;DHT22;9761;50.926;5.330;2022-11-15T12:48:53;13.80;99.90
19254;DHT22;9761;50.926;5.330;2022-11-15T12:51:22;13.90;99.90
19254;DHT22;9761;50.926;5.330;2022-11-15T12:53:54;14.20;99.90
19254;DHT22;9761;50.926;5.330;2022-11-15T12:56:24;14.30;99.90
19254;DHT22;9761;50.926;5.330;2022-11-15T12:58:57;14.40;99.90
19254;DHT22;9761;50.926;5.330;2022-11-15T13:01:56;14.40;99.90
19254;DHT22;9761;50.926;5.330;2022-11-15T13:04:28;14.50;99.90
19254;DHT22;9761;50.926;5.330;2022-11-15T13:06:57;14.50;99.90
19254;DHT22;9761;50.926;5.330;2022-11-15T13:09:54;14.30;99.90
19254;DHT22;9761;50.926;5.330;2022-11-15T13:12:49;14.30;99.90
19254;DHT22;9761;50.926;5.330;2022-11-15T13:18:37;14.20;99.90
19254;DHT22;9761;50.926;5.330;2022-11-15T13:21:23;14.30;99.90
19254;DHT22;9761;50.926;5.330;2022-11-15T13:24:16;14.20;99.90
19254;DHT22;9761;50.926;5.330;2022-11-15T13:26:45;14.20;99.90
19254;DHT22;9761;50.926;5.330;2022-11-15T13:29:19;14.30;99.90
19254;DHT22;9761;50.926;5.330;2022-11-15T13:31:47;14.30;99.90
19254;DHT22;9761;50.926;5.330;2022-11-15T13:34:27;14.30;99.90
19254;DHT22;9761;50.926;5.330;2022-11-15T13:36:56;14.30;99.90
19254;DHT22;9761;50.926;5.330;2022-11-15T13:39:28;14.40;99.90
19254;DHT22;9761;50.926;5.330;2022-11-15T13:41:58;14.60;99.90
19254;DHT22;9761;50.926;5.330;2022-11-15T13:44:27;14.50;99.90
19254;DHT22;9761;50.926;5.330;2022-11-15T13:47:05;14.50;99.90
19254;DHT22;9761;50.926;5.330;2022-11-15T13:49:34;14.70;99.90
19254;DHT22;9761;50.926;5.330;2022-11-15T13:52:11;15.00;99.90
19254;DHT22;9761;50.926;5.330;2022-11-15T13:54:43;14.90;99.90
19254;DHT22;9761;50.926;5.330;2022-11-15T13:57:18;14.90;99.90
19254;DHT22;9761;50.926;5.330;2022-11-15T13:59:49;15.00;99.90
19254;DHT22;9761;50.926;5.330;2022-11-15T14:02:19;14.80;99.90
19254;DHT22;9761;50.926;5.330;2022-11-15T14:04:51;14.80;99.90
19254;DHT22;9761;50.926;5.330;2022-11-15T14:07:26;14.50;99.90
19254;DHT22;9761;50.926;5.330;2022-11-15T14:09:54;14.40;99.90
19254;DHT22;9761;50.926;5.330;2022-11-15T14:12:29;14.40;99.90
19254;DHT22;9761;50.926;5.330;2022-11-15T14:14:57;14.70;99.90
19254;DHT22;9761;50.926;5.330;2022-11-15T14:17:37;14.80;99.90
19254;DHT22;9761;50.926;5.330;2022-11-15T14:20:28;14.40;99.90
19254;DHT22;9761;50.926;5.330;2022-11-15T14:22:59;14.30;99.90
19254;DHT22;9761;50.926;5.330;2022-11-15T14:25:28;14.40;99.90
19254;DHT22;9761;50.926;5.330;2022-11-15T14:44:51;14.20;99.90
19254;DHT22;9761;50.926;5.330;2022-11-15T14:47:25;14.00;99.90
19254;DHT22;9761;50.926;5.330;2022-11-15T14:50:14;14.00;99.90
19254;DHT22;9761;50.926;5.330;2022-11-15T14:52:42;14.00;99.90
19254;DHT22;9761;50.926;5.330;2022-11-15T14:55:16;14.20;99.90
19254;DHT22;9761;50.926;5.330;2022-11-15T14:57:49;14.20;99.90
19254;DHT22;9761;50.926;5.330;2022-11-15T15:00:21;14.20;99.90
19254;DHT22;9761;50.926;5.330;2022-11-15T15:02:51;14.20;99.90
19254;DHT22;9761;50.926;5.330;2022-11-15T15:05:24;14.20;99.90
19254;DHT22;9761;50.926;5.330;2022-11-15T15:07:53;14.30;99.90
19254;DHT22;9761;50.926;5.330;2022-11-15T15:13:38;14.20;99.90
19254;DHT22;9761;50.926;5.330;2022-11-15T15:16:12;14.10;99.90
19254;DHT22;9761;50.926;5.330;2022-11-15T15:18:40;13.90;99.90
19254;DHT22;9761;50.926;5.330;2022-11-15T15:21:17;14.00;99.90
19254;DHT22;9761;50.926;5.330;2022-11-15T15:23:51;13.90;99.90
19254;DHT22;9761;50.926;5.330;2022-11-15T15:26:22;13.90;99.90
19254;DHT22;9761;50.926;5.330;2022-11-15T15:28:55;14.00;99.90
19254;DHT22;9761;50.926;5.330;2022-11-15T15:31:23;13.80;99.90
19254;DHT22;9761;50.926;5.330;2022-11-15T15:33:51;13.70;99.90
19254;DHT22;9761;50.926;5.330;2022-11-15T15:36:21;13.80;99.90
19254;DHT22;9761;50.926;5.330;2022-11-15T15:38:49;13.80;99.90
19254;DHT22;9761;50.926;5.330;2022-11-15T15:41:18;13.80;99.90
19254;DHT22;9761;50.926;5.330;2022-11-15T15:43:47;13.60;99.90
19254;DHT22;9761;50.926;5.330;2022-11-15T15:46:15;13.60;99.90
19254;DHT22;9761;50.926;5.330;2022-11-15T15:48:45;13.70;99.90
19254;DHT22;9761;50.926;5.330;2022-11-15T15:51:14;13.70;99.90
19254;DHT22;9761;50.926;5.330;2022-11-15T15:53:44;13.70;99.90
19254;DHT22;9761;50.926;5.330;2022-11-15T15:56:13;13.50;99.90
19254;DHT22;9761;50.926;5.330;2022-11-15T15:58:40;13.40;99.90
19254;DHT22;9761;50.926;5.330;2022-11-15T16:01:25;13.40;99.90
19254;DHT22;9761;50.926;5.330;2022-11-15T16:03:54;13.40;99.90
19254;DHT22;9761;50.926;5.330;2022-11-15T16:06:34;13.20;99.90
19254;DHT22;9761;50.926;5.330;2022-11-15T16:09:04;13.10;99.90
19254;DHT22;9761;50.926;5.330;2022-11-15T16:21:19;13.00;99.90
19254;DHT22;9761;50.926;5.330;2022-11-15T16:24:01;12.90;99.90
19254;DHT22;9761;50.926;5.330;2022-11-15T16:26:30;12.90;99.90
19254;DHT22;9761;50.926;5.330;2022-11-15T16:29:43;12.90;99.90
19254;DHT22;9761;50.926;5.330;2022-11-15T16:32:48;12.80;99.90
19254;DHT22;9761;50.926;5.330;2022-11-15T16:35:22;12.70;99.90
19254;DHT22;9761;50.926;5.330;2022-11-15T16:37:51;12.80;99.90
19254;DHT22;9761;50.926;5.330;2022-11-15T16:40:27;12.80;99.90
19254;DHT22;9761;50.926;5.330;2022-11-15T16:43:00;12.70;99.90
19254;DHT22;9761;50.926;5.330;2022-11-15T16:45:34;12.60;99.90
19254;DHT22;9761;50.926;5.330;2022-11-15T16:48:03;12.60;99.90
19254;DHT22;9761;50.926;5.330;2022-11-15T16:50:32;12.60;99.90
19254;DHT22;9761;50.926;5.330;2022-11-15T16:53:09;12.60;99.90
19254;DHT22;9761;50.926;5.330;2022-11-15T16:55:38;12.60;99.90
19254;DHT22;9761;50.926;5.330;2022-11-15T16:58:07;12.60;99.90
19254;DHT22;9761;50.926;5.330;2022-11-15T17:00:37;12.40;99.90
19254;DHT22;9761;50.926;5.330;2022-11-15T17:03:05;12.50;99.90
19254;DHT22;9761;50.926;5.330;2022-11-15T17:05:34;12.40;99.90
19254;DHT22;9761;50.926;5.330;2022-11-15T17:08:01;12.40;99.90
19254;DHT22;9761;50.926;5.330;2022-11-15T17:10:30;12.50;99.90
19254;DHT22;9761;50.926;5.330;2022-11-15T17:12:57;12.60;99.90
19254;DHT22;9761;50.926;5.330;2022-11-15T17:15:26;12.50;99.90
19254;DHT22;9761;50.926;5.330;2022-11-15T17:17:57;12.50;99.90
19254;DHT22;9761;50.926;5.330;2022-11-15T17:20:25;12.40;99.90
19254;DHT22;9761;50.926;5.330;2022-11-15T17:22:55;12.50;99.90
19254;DHT22;9761;50.926;5.330;2022-11-15T17:25:31;12.50;99.90
19254;DHT22;9761;50.926;5.330;2022-11-15T17:27:58;12.50;99.90
19254;DHT22;9761;50.926;5.330;2022-11-15T17:30:26;12.50;99.90
19254;DHT22;9761;50.926;5.330;2022-11-15T17:32:53;12.60;99.90
19254;DHT22;9761;50.926;5.330;2022-11-15T17:35:22;12.70;99.90
19254;DHT22;9761;50.926;5.330;2022-11-15T17:37:50;12.80;99.90
19254;DHT22;9761;50.926;5.330;2022-11-15T17:40:21;12.60;99.90
19254;DHT22;9761;50.926;5.330;2022-11-15T17:42:51;12.60;99.90
19254;DHT22;9761;50.926;5.330;2022-11-15T17:45:20;12.60;99.90
19254;DHT22;9761;50.926;5.330;2022-11-15T17:51:14;12.60;99.90
19254;DHT22;9761;50.926;5.330;2022-11-15T18:25:30;12.70;99.90
19254;DHT22;9761;50.926;5.330;2022-11-15T18:27:58;12.70;99.90
19254;DHT22;9761;50.926;5.330;2022-11-15T18:30:29;12.70;99.90
19254;DHT22;9761;50.926;5.330;2022-11-15T18:36:28;12.70;99.90
19254;DHT22;9761;50.926;5.330;2022-11-15T18:39:00;12.70;99.90
19254;DHT22;9761;50.926;5.330;2022-11-15T18:41:37;12.70;99.90
19254;DHT22;9761;50.926;5.330;2022-11-15T18:44:04;12.60;99.90
19254;DHT22;9761;50.926;5.330;2022-11-15T18:46:36;12.90;99.90
19254;DHT22;9761;50.926;5.330;2022-11-15T18:49:10;12.90;99.90
19254;DHT22;9761;50.926;5.330;2022-11-15T18:57:55;12.80;99.90
19254;DHT22;9761;50.926;5.330;2022-11-15T19:00:27;12.80;99.90
19254;DHT22;9761;50.926;5.330;2022-11-15T19:02:56;12.80;99.90
19254;DHT22;9761;50.926;5.330;2022-11-15T19:11:33;12.90;99.90
19254;DHT22;9761;50.926;5.330;2022-11-15T19:17:02;12.80;99.90
19254;DHT22;9761;50.926;5.330;2022-11-15T19:19:42;12.90;99.90
19254;DHT22;9761;50.926;5.330;2022-11-15T19:22:12;13.00;99.90
19254;DHT22;9761;50.926;5.330;2022-11-15T19:24:42;12.90;99.90
19254;DHT22;9761;50.926;5.330;2022-11-15T19:27:11;12.80;99.90
19254;DHT22;9761;50.926;5.330;2022-11-15T19:29:52;12.70;99.90
19254;DHT22;9761;50.926;5.330;2022-11-15T19:32:22;12.90;99.90
19254;DHT22;9761;50.926;5.330;2022-11-15T19:34:52;12.80;99.90
19254;DHT22;9761;50.926;5.330;2022-11-15T19:37:25;12.80;99.90
19254;DHT22;9761;50.926;5.330;2022-11-15T19:43:10;13.00;99.90
19254;DHT22;9761;50.926;5.330;2022-11-15T19:45:54;13.00;99.90
19254;DHT22;9761;50.926;5.330;2022-11-15T19:48:23;12.80;99.90
19254;DHT22;9761;50.926;5.330;2022-11-15T19:50:52;12.70;99.90
19254;DHT22;9761;50.926;5.330;2022-11-15T19:53:26;12.80;99.90
19254;DHT22;9761;50.926;5.330;2022-11-15T19:55:56;12.80;99.90
19254;DHT22;9761;50.926;5.330;2022-11-15T19:58:29;12.80;99.90
19254;DHT22;9761;50.926;5.330;2022-11-15T20:01:01;12.80;99.90
19254;DHT22;9761;50.926;5.330;2022-11-15T20:03:39;12.80;99.90
19254;DHT22;9761;50.926;5.330;2022-11-15T20:06:12;12.70;99.90
19254;DHT22;9761;50.926;5.330;2022-11-15T20:08:42;12.90;99.90
19254;DHT22;9761;50.926;5.330;2022-11-15T20:11:10;13.00;99.90
19254;DHT22;9761;50.926;5.330;2022-11-15T20:13:40;13.00;99.90
19254;DHT22;9761;50.926;5.330;2022-11-15T20:16:08;13.00;99.90
19254;DHT22;9761;50.926;5.330;2022-11-15T20:18:42;13.00;99.90
19254;DHT22;9761;50.926;5.330;2022-11-15T20:21:11;13.00;99.90
19254;DHT22;9761;50.926;5.330;2022-11-15T20:23:40;13.00;99.90
19254;DHT22;9761;50.926;5.330;2022-11-15T20:29:08;13.00;99.90
19254;DHT22;9761;50.926;5.330;2022-11-15T20:31:42;13.00;99.90
19254;DHT22;9761;50.926;5.330;2022-11-15T20:34:21;13.00;99.90
19254;DHT22;9761;50.926;5.330;2022-11-15T20:36:49;12.90;99.90
19254;DHT22;9761;50.926;5.330;2022-11-15T20:39:22;12.80;99.90
19254;DHT22;9761;50.926;5.330;2022-11-15T20:41:51;12.80;99.90
19254;DHT22;9761;50.926;5.330;2022-11-15T20:44:18;12.90;99.90
19254;DHT22;9761;50.926;5.330;2022-11-15T20:46:46;13.00;99.90
19254;DHT22;9761;50.926;5.330;2022-11-15T20:49:13;12.90;99.90
19254;DHT22;9761;50.926;5.330;2022-11-15T20:51:42;12.80;99.90
19254;DHT22;9761;50.926;5.330;2022-11-15T20:54:11;12.80;99.90
19254;DHT22;9761;50.926;5.330;2022-11-15T20:56:38;12.90;99.90
19254;DHT22;9761;50.926;5.330;2022-11-15T20:59:11;13.00;99.90
19254;DHT22;9761;50.926;5.330;2022-11-15T21:01:39;12.80;99.90
19254;DHT22;9761;50.926;5.330;2022-11-15T21:07:24;12.90;99.90
19254;DHT22;9761;50.926;5.330;2022-11-15T21:10:02;13.00;99.90
19254;DHT22;9761;50.926;5.330;2022-11-15T21:12:51;13.00;99.90
19254;DHT22;9761;50.926;5.330;2022-11-15T21:15:21;13.00;99.90
19254;DHT22;9761;50.926;5.330;2022-11-15T21:17:48;12.90;99.90
19254;DHT22;9761;50.926;5.330;2022-11-15T21:20:16;13.00;99.90
19254;DHT22;9761;50.926;5.330;2022-11-15T21:22:44;12.90;99.90
19254;DHT22;9761;50.926;5.330;2022-11-15T21:25:11;12.90;99.90
19254;DHT22;9761;50.926;5.330;2022-11-15T21:27:38;12.90;99.90
19254;DHT22;9761;50.926;5.330;2022-11-15T21:30:06;12.90;99.90
19254;DHT22;9761;50.926;5.330;2022-11-15T21:32:34;12.70;99.90
19254;DHT22;9761;50.926;5.330;2022-11-15T21:38:15;12.70;99.90
19254;DHT22;9761;50.926;5.330;2022-11-15T21:40:42;12.80;99.90
19254;DHT22;9761;50.926;5.330;2022-11-15T21:43:10;12.70;99.90
19254;DHT22;9761;50.926;5.330;2022-11-15T21:45:39;12.70;99.90
19254;DHT22;9761;50.926;5.330;2022-11-15T21:51:44;12.80;99.90
19254;DHT22;9761;50.926;5.330;2022-11-15T22:02:47;12.80;99.90
19254;DHT22;9761;50.926;5.330;2022-11-15T22:05:15;12.80;99.90
19254;DHT22;9761;50.926;5.330;2022-11-15T22:07:44;12.70;99.90
19254;DHT22;9761;50.926;5.330;2022-11-15T22:10:11;12.80;99.90
19254;DHT22;9761;50.926;5.330;2022-11-15T22:12:40;12.70;99.90
19254;DHT22;9761;50.926;5.330;2022-11-15T22:15:07;12.70;99.90
19254;DHT22;9761;50.926;5.330;2022-11-15T22:17:36;12.70;99.90
19254;DHT22;9761;50.926;5.330;2022-11-15T22:20:20;12.80;99.90
19254;DHT22;9761;50.926;5.330;2022-11-15T22:22:47;12.70;99.90
19254;DHT22;9761;50.926;5.330;2022-11-15T22:25:14;12.70;99.90
19254;DHT22;9761;50.926;5.330;2022-11-15T22:27:43;12.70;99.90
19254;DHT22;9761;50.926;5.330;2022-11-15T22:30:10;12.70;99.90
19254;DHT22;9761;50.926;5.330;2022-11-15T22:32:48;12.70;99.90
19254;DHT22;9761;50.926;5.330;2022-11-15T22:35:18;12.80;99.90
19254;DHT22;9761;50.926;5.330;2022-11-15T22:53:37;12.80;99.90
19254;DHT22;9761;50.926;5.330;2022-11-15T22:56:05;12.80;99.90
19254;DHT22;9761;50.926;5.330;2022-11-15T22:58:32;12.90;99.90
19254;DHT22;9761;50.926;5.330;2022-11-15T23:01:04;12.90;99.90
19254;DHT22;9761;50.926;5.330;2022-11-15T23:03:33;12.90;99.90
19254;DHT22;9761;50.926;5.330;2022-11-15T23:06:04;12.80;99.90
19254;DHT22;9761;50.926;5.330;2022-11-15T23:08:33;12.80;99.90
19254;DHT22;9761;50.926;5.330;2022-11-15T23:11:03;12.70;99.90
19254;DHT22;9761;50.926;5.330;2022-11-15T23:13:49;12.60;99.90
19254;DHT22;9761;50.926;5.330;2022-11-15T23:16:19;12.50;99.90
19254;DHT22;9761;50.926;5.330;2022-11-15T23:19:02;12.60;99.90
19254;DHT22;9761;50.926;5.330;2022-11-15T23:21:30;12.40;99.90
19254;DHT22;9761;50.926;5.330;2022-11-15T23:24:16;12.30;99.90
19254;DHT22;9761;50.926;5.330;2022-11-15T23:26:52;12.30;99.90
19254;DHT22;9761;50.926;5.330;2022-11-15T23:29:21;12.30;99.90
19254;DHT22;9761;50.926;5.330;2022-11-15T23:31:53;12.30;99.90
19254;DHT22;9761;50.926;5.330;2022-11-15T23:34:41;12.30;99.90
19254;DHT22;9761;50.926;5.330;2022-11-15T23:37:11;12.30;99.90
19254;DHT22;9761;50.926;5.330;2022-11-15T23:39:39;12.40;99.90
19254;DHT22;9761;50.926;5.330;2022-11-15T23:42:09;12.50;99.90
19254;DHT22;9761;50.926;5.330;2022-11-15T23:44:44;12.60;99.90
19254;DHT22;9761;50.926;5.330;2022-11-15T23:47:11;12.70;99.90
19254;DHT22;9761;50.926;5.330;2022-11-15T23:49:38;12.90;99.90
19254;DHT22;9761;50.926;5.330;2022-11-15T23:52:07;12.90;99.90
19254;DHT22;9761;50.926;5.330;2022-11-15T23:54:35;13.00;99.90
19254;DHT22;9761;50.926;5.330;2022-11-15T23:57:03;13.10;99.90
19254;DHT22;9761;50.926;5.330;2022-11-15T23:59:34;12.70;99.90
